createdAt,value
2023-02-11T00:01:25.170Z,100.00
2023-02-11T00:03:51.975Z,100.00
2023-02-11T00:06:19.639Z,100.00
2023-02-11T00:08:46.403Z,100.00
2023-02-11T00:11:15.196Z,100.00
2023-02-11T00:13:43.344Z,100.00
2023-02-11T00:16:12.453Z,100.00
2023-02-11T00:18:39.322Z,100.00
2023-02-11T00:21:15.073Z,100.00
2023-02-11T00:23:41.855Z,100.00
2023-02-11T00:26:16.689Z,100.00
2023-02-11T00:28:45.657Z,100.00
2023-02-11T00:31:15.326Z,100.00
2023-02-11T00:33:43.081Z,100.00
2023-02-11T00:36:30.575Z,100.00
2023-02-11T00:38:58.257Z,100.00
2023-02-11T00:41:26.002Z,100.00
2023-02-11T00:43:52.953Z,100.00
2023-02-11T00:46:20.842Z,100.00
2023-02-11T00:48:48.057Z,100.00
2023-02-11T00:51:14.719Z,100.00
2023-02-11T00:53:41.543Z,100.00
2023-02-11T00:56:08.105Z,100.00
2023-02-11T00:58:35.587Z,100.00
2023-02-11T01:01:02.481Z,100.00
2023-02-11T01:03:29.271Z,100.00
2023-02-11T01:05:56.055Z,100.00
2023-02-11T01:08:22.889Z,100.00
2023-02-11T01:11:01.683Z,100.00
2023-02-11T01:13:30.298Z,100.00
2023-02-11T01:15:56.961Z,100.00
2023-02-11T01:18:24.862Z,100.00
2023-02-11T01:20:53.082Z,100.00
2023-02-11T01:23:20.573Z,100.00
2023-02-11T01:25:48.534Z,100.00
2023-02-11T01:28:27.410Z,100.00
2023-02-11T01:30:54.403Z,100.00
2023-02-11T01:33:21.853Z,100.00
2023-02-11T01:35:49.004Z,100.00
2023-02-11T01:38:20.000Z,100.00
2023-02-11T01:41:07.931Z,100.00
2023-02-11T01:43:54.594Z,100.00
2023-02-11T01:46:41.785Z,100.00
2023-02-11T01:49:36.432Z,100.00
2023-02-11T01:52:32.027Z,100.00
2023-02-11T01:55:37.323Z,100.00
2023-02-11T01:58:05.072Z,100.00
2023-02-11T02:00:38.323Z,100.00
2023-02-11T02:03:09.769Z,100.00
2023-02-11T02:06:04.106Z,100.00
2023-02-11T02:08:43.020Z,100.00
2023-02-11T02:11:10.611Z,100.00
2023-02-11T02:13:37.508Z,100.00
2023-02-11T02:16:12.398Z,100.00
2023-02-11T02:19:47.790Z,100.00
2023-02-11T02:22:49.207Z,100.00
2023-02-11T02:25:35.407Z,100.00
2023-02-11T02:28:35.753Z,100.00
2023-02-11T02:31:30.887Z,100.00
2023-02-11T02:34:06.839Z,100.00
2023-02-11T02:36:51.795Z,100.00
2023-02-11T02:39:23.861Z,100.00
2023-02-11T02:41:53.275Z,100.00
2023-02-11T02:44:20.914Z,100.00
2023-02-11T02:46:47.517Z,100.00
2023-02-11T02:49:15.991Z,100.00
2023-02-11T02:52:04.684Z,100.00
2023-02-11T02:54:59.856Z,100.00
2023-02-11T02:57:40.760Z,100.00
2023-02-11T03:00:38.240Z,100.00
2023-02-11T03:03:31.131Z,100.00
2023-02-11T03:06:12.972Z,100.00
2023-02-11T03:08:49.374Z,100.00
2023-02-11T03:11:18.469Z,100.00
2023-02-11T03:13:47.556Z,100.00
2023-02-11T03:16:19.467Z,100.00
2023-02-11T03:19:11.488Z,100.00
2023-02-11T03:21:40.656Z,100.00
2023-02-11T03:24:13.564Z,100.00
2023-02-11T03:26:53.256Z,100.00
2023-02-11T03:29:35.571Z,100.00
2023-02-11T03:32:08.799Z,100.00
2023-02-11T03:34:47.566Z,100.00
2023-02-11T03:37:25.405Z,100.00
2023-02-11T03:39:57.443Z,100.00
2023-02-11T03:42:30.164Z,100.00
2023-02-11T03:45:04.467Z,100.00
2023-02-11T03:47:34.141Z,100.00
2023-02-11T03:50:04.533Z,100.00
2023-02-11T03:52:32.621Z,100.00
2023-02-11T03:55:01.681Z,100.00
2023-02-11T03:57:28.749Z,100.00
2023-02-11T03:59:58.120Z,100.00
2023-02-11T04:02:29.404Z,100.00
2023-02-11T04:04:56.662Z,100.00
2023-02-11T04:07:23.736Z,100.00
2023-02-11T04:09:50.493Z,100.00
2023-02-11T04:12:16.986Z,100.00
2023-02-11T04:14:43.589Z,100.00
2023-02-11T04:17:10.122Z,100.00
2023-02-11T04:19:37.015Z,100.00
2023-02-11T04:22:03.651Z,100.00
2023-02-11T04:24:30.818Z,100.00
2023-02-11T04:26:57.329Z,100.00
2023-02-11T04:29:23.879Z,100.00
2023-02-11T04:31:50.864Z,100.00
2023-02-11T04:34:17.551Z,100.00
2023-02-11T04:36:44.083Z,100.00
2023-02-11T04:39:14.046Z,100.00
2023-02-11T04:41:40.758Z,100.00
2023-02-11T04:44:07.587Z,100.00
2023-02-11T04:46:34.713Z,100.00
2023-02-11T04:49:01.128Z,100.00
2023-02-11T04:51:28.549Z,100.00
2023-02-11T04:53:55.135Z,100.00
2023-02-11T04:56:22.388Z,100.00
2023-02-11T04:58:48.813Z,100.00
2023-02-11T05:01:16.455Z,100.00
2023-02-11T05:03:43.423Z,100.00
2023-02-11T05:06:11.033Z,100.00
2023-02-11T05:08:38.281Z,100.00
2023-02-11T05:11:05.136Z,100.00
2023-02-11T05:13:32.511Z,100.00
2023-02-11T05:15:59.507Z,100.00
2023-02-11T05:18:26.246Z,100.00
2023-02-11T05:20:52.690Z,100.00
2023-02-11T05:23:19.459Z,100.00
2023-02-11T05:25:45.982Z,100.00
2023-02-11T05:28:12.705Z,100.00
2023-02-11T05:30:39.316Z,100.00
2023-02-11T05:33:05.827Z,100.00
2023-02-11T05:35:32.394Z,100.00
2023-02-11T05:37:59.474Z,100.00
2023-02-11T05:40:26.122Z,100.00
2023-02-11T05:42:52.628Z,100.00
2023-02-11T05:45:19.515Z,100.00
2023-02-11T05:47:46.418Z,100.00
2023-02-11T05:50:12.905Z,100.00
2023-02-11T05:52:39.800Z,100.00
2023-02-11T05:55:06.616Z,100.00
2023-02-11T05:57:34.184Z,100.00
2023-02-11T06:00:00.917Z,100.00
2023-02-11T06:02:27.869Z,100.00
2023-02-11T06:04:54.313Z,100.00
2023-02-11T06:07:21.246Z,100.00
2023-02-11T06:09:48.162Z,100.00
2023-02-11T06:12:14.643Z,100.00
2023-02-11T06:14:42.191Z,100.00
2023-02-11T06:17:08.968Z,100.00
2023-02-11T06:19:36.125Z,100.00
2023-02-11T06:22:03.844Z,100.00
2023-02-11T06:24:54.657Z,100.00
2023-02-11T06:27:18.615Z,100.00
2023-02-11T06:29:46.164Z,100.00
2023-02-11T06:32:33.599Z,100.00
2023-02-11T06:35:00.416Z,100.00
2023-02-11T06:37:27.291Z,100.00
2023-02-11T06:39:53.707Z,100.00
2023-02-11T06:42:20.609Z,100.00
2023-02-11T06:44:47.759Z,100.00
2023-02-11T06:47:14.217Z,100.00
2023-02-11T06:49:40.715Z,100.00
2023-02-11T06:52:07.433Z,100.00
2023-02-11T06:54:34.173Z,100.00
2023-02-11T06:57:01.144Z,100.00
2023-02-11T06:59:27.769Z,100.00
2023-02-11T07:01:54.277Z,100.00
2023-02-11T07:04:20.886Z,100.00
2023-02-11T07:06:47.422Z,100.00
2023-02-11T07:09:14.395Z,100.00
2023-02-11T07:11:40.839Z,100.00
2023-02-11T07:14:08.711Z,100.00
2023-02-11T07:16:35.750Z,100.00
2023-02-11T07:19:02.339Z,100.00
2023-02-11T07:21:29.025Z,100.00
2023-02-11T07:23:55.538Z,100.00
2023-02-11T07:26:23.690Z,100.00
2023-02-11T07:28:51.571Z,100.00
2023-02-11T07:31:21.401Z,100.00
2023-02-11T07:33:48.396Z,100.00
2023-02-11T07:36:16.386Z,100.00
2023-02-11T07:38:44.107Z,100.00
2023-02-11T07:41:16.083Z,100.00
2023-02-11T07:43:42.775Z,100.00
2023-02-11T07:46:12.924Z,100.00
2023-02-11T07:48:40.070Z,100.00
2023-02-11T07:51:21.991Z,100.00
2023-02-11T07:53:49.084Z,100.00
2023-02-11T07:56:16.875Z,100.00
2023-02-11T07:58:44.041Z,100.00
2023-02-11T08:01:13.268Z,100.00
2023-02-11T08:03:41.871Z,100.00
2023-02-11T08:06:14.318Z,100.00
2023-02-11T08:08:41.403Z,100.00
2023-02-11T08:11:15.217Z,100.00
2023-02-11T08:13:42.081Z,100.00
2023-02-11T08:16:10.279Z,100.00
2023-02-11T08:18:37.092Z,100.00
2023-02-11T08:21:09.079Z,100.00
2023-02-11T08:23:37.163Z,100.00
2023-02-11T08:26:04.912Z,100.00
2023-02-11T08:28:31.830Z,100.00
2023-02-11T08:30:58.551Z,100.00
2023-02-11T08:33:25.125Z,100.00
2023-02-11T08:35:51.684Z,100.00
2023-02-11T08:38:18.330Z,100.00
2023-02-11T08:40:44.892Z,100.00
2023-02-11T08:43:11.375Z,100.00
2023-02-11T08:45:37.913Z,100.00
2023-02-11T08:48:04.459Z,100.00
2023-02-11T08:50:32.151Z,100.00
2023-02-11T08:52:59.047Z,100.00
2023-02-11T08:55:25.673Z,100.00
2023-02-11T08:57:52.083Z,100.00
2023-02-11T09:00:19.224Z,100.00
2023-02-11T09:02:45.735Z,100.00
2023-02-11T09:05:12.361Z,100.00
2023-02-11T09:07:39.161Z,100.00
2023-02-11T09:10:06.442Z,100.00
2023-02-11T09:12:33.037Z,100.00
2023-02-11T09:14:59.586Z,100.00
2023-02-11T09:17:26.341Z,100.00
2023-02-11T09:19:53.252Z,100.00
2023-02-11T09:22:19.699Z,100.00
2023-02-11T09:24:46.155Z,100.00
2023-02-11T09:27:12.916Z,100.00
2023-02-11T09:29:39.451Z,100.00
2023-02-11T09:32:08.657Z,100.00
2023-02-11T09:34:36.592Z,100.00
2023-02-11T09:37:03.124Z,100.00
2023-02-11T09:39:29.833Z,100.00
2023-02-11T09:41:59.154Z,100.00
2023-02-11T09:44:28.763Z,100.00
2023-02-11T09:46:59.717Z,100.00
2023-02-11T09:49:45.162Z,100.00
2023-02-11T09:52:26.650Z,100.00
2023-02-11T09:55:11.146Z,100.00
2023-02-11T09:57:37.581Z,100.00
2023-02-11T10:00:37.027Z,100.00
2023-02-11T10:03:38.619Z,100.00
2023-02-11T10:06:22.612Z,100.00
2023-02-11T10:09:07.924Z,100.00
2023-02-11T10:11:43.443Z,100.00
2023-02-11T10:14:15.943Z,98.56
2023-02-11T10:16:59.952Z,96.61
2023-02-11T10:19:44.762Z,97.61
2023-02-11T10:22:24.463Z,95.34
2023-02-11T10:24:54.774Z,95.36
2023-02-11T10:27:31.069Z,95.81
2023-02-11T10:30:16.058Z,93.95
2023-02-11T10:32:49.456Z,92.30
2023-02-11T10:35:18.849Z,92.12
2023-02-11T10:37:45.695Z,91.66
2023-02-11T10:40:18.255Z,88.81
2023-02-11T10:42:49.753Z,88.60
2023-02-11T10:45:29.323Z,87.99
2023-02-11T10:47:56.229Z,88.24
2023-02-11T10:50:29.505Z,90.24
2023-02-11T10:53:19.659Z,89.29
2023-02-11T10:55:52.458Z,88.67
2023-02-11T10:58:31.705Z,88.04
2023-02-11T11:01:00.315Z,89.63
2023-02-11T11:03:32.874Z,90.28
2023-02-11T11:06:02.153Z,89.80
2023-02-11T11:08:44.922Z,85.94
2023-02-11T11:11:23.391Z,83.51
2023-02-11T11:13:52.796Z,85.69
2023-02-11T11:16:29.407Z,84.99
2023-02-11T11:19:08.288Z,85.58
2023-02-11T11:21:42.413Z,82.81
2023-02-11T11:24:22.622Z,82.83
2023-02-11T11:26:59.594Z,80.97
2023-02-11T11:29:37.234Z,79.70
2023-02-11T11:32:20.686Z,79.48
2023-02-11T11:34:56.555Z,81.01
2023-02-11T11:37:26.686Z,80.03
2023-02-11T11:40:02.302Z,79.30
2023-02-11T11:42:30.077Z,76.58
2023-02-11T11:44:59.656Z,76.63
2023-02-11T11:47:39.635Z,75.02
2023-02-11T11:50:43.029Z,75.48
2023-02-11T11:53:37.961Z,74.88
2023-02-11T11:56:07.338Z,75.14
2023-02-11T11:58:34.731Z,76.74
2023-02-11T12:01:28.689Z,75.74
2023-02-11T12:04:12.994Z,73.11
2023-02-11T12:06:42.564Z,72.89
2023-02-11T12:09:25.232Z,73.62
2023-02-11T12:12:10.213Z,70.22
2023-02-11T12:14:42.872Z,71.32
2023-02-11T12:17:28.311Z,70.53
2023-02-11T12:20:19.112Z,72.50
2023-02-11T12:23:00.105Z,75.50
2023-02-11T12:25:48.324Z,76.04
2023-02-11T12:28:34.938Z,75.65
2023-02-11T12:31:52.849Z,78.03
2023-02-11T12:34:45.531Z,77.08
2023-02-11T12:37:25.505Z,77.12
2023-02-11T12:40:06.911Z,78.29
2023-02-11T12:43:04.036Z,79.45
2023-02-11T12:45:45.828Z,79.01
2023-02-11T12:48:28.054Z,77.92
2023-02-11T12:51:01.721Z,77.85
2023-02-11T12:53:46.286Z,77.33
2023-02-11T12:56:20.910Z,77.39
2023-02-11T12:58:50.370Z,78.49
2023-02-11T13:01:23.318Z,79.33
2023-02-11T13:04:09.314Z,79.13
2023-02-11T13:06:45.240Z,79.13
2023-02-11T13:09:36.861Z,77.56
2023-02-11T13:12:26.076Z,77.81
2023-02-11T13:14:56.778Z,88.98
2023-02-11T13:17:35.074Z,92.00
2023-02-11T13:20:17.854Z,90.66
2023-02-11T13:22:50.751Z,88.42
2023-02-11T13:25:40.503Z,87.54
2023-02-11T13:28:29.557Z,89.39
2023-02-11T13:31:03.020Z,88.07
2023-02-11T13:33:43.255Z,87.77
2023-02-11T13:36:09.869Z,86.51
2023-02-11T13:38:37.527Z,86.06
2023-02-11T13:41:15.220Z,87.70
2023-02-11T13:43:42.207Z,89.34
2023-02-11T13:46:13.073Z,90.20
2023-02-11T13:48:48.058Z,90.05
2023-02-11T13:51:18.779Z,90.04
2023-02-11T13:53:58.307Z,92.51
2023-02-11T13:56:31.122Z,92.27
2023-02-11T13:59:01.869Z,93.13
2023-02-11T14:01:43.248Z,94.86
2023-02-11T14:04:41.083Z,97.20
2023-02-11T14:07:45.965Z,96.82
2023-02-11T14:10:43.806Z,96.67
2023-02-11T14:13:26.728Z,95.61
2023-02-11T14:16:13.488Z,94.98
2023-02-11T14:18:49.119Z,97.00
2023-02-11T14:21:29.005Z,95.60
2023-02-11T14:24:01.480Z,100.00
2023-02-11T14:26:51.323Z,100.00
2023-02-11T14:29:29.360Z,100.00
2023-02-11T14:32:05.933Z,100.00
2023-02-11T14:35:12.136Z,100.00
2023-02-11T14:37:50.969Z,100.00
2023-02-11T14:40:31.812Z,100.00
2023-02-11T14:43:14.975Z,100.00
2023-02-11T14:45:44.588Z,100.00
2023-02-11T14:48:20.067Z,100.00
2023-02-11T14:50:51.753Z,100.00
2023-02-11T14:53:21.899Z,100.00
2023-02-11T14:55:52.279Z,100.00
2023-02-11T14:58:20.983Z,100.00
2023-02-11T15:01:23.609Z,100.00
2023-02-11T15:03:50.231Z,100.00
2023-02-11T15:06:23.215Z,100.00
2023-02-11T15:08:58.272Z,100.00
2023-02-11T15:11:26.177Z,100.00
2023-02-11T15:13:55.352Z,100.00
2023-02-11T15:16:27.653Z,100.00
2023-02-11T15:18:59.497Z,100.00
2023-02-11T15:21:29.916Z,100.00
2023-02-11T15:23:58.002Z,100.00
2023-02-11T15:26:24.659Z,100.00
2023-02-11T15:28:54.160Z,100.00
2023-02-11T15:31:25.776Z,100.00
2023-02-11T15:33:53.676Z,100.00
2023-02-11T15:36:28.388Z,100.00
2023-02-11T15:39:43.284Z,100.00
2023-02-11T15:42:27.578Z,100.00
2023-02-11T15:45:15.840Z,100.00
2023-02-11T15:47:52.511Z,100.00
2023-02-11T15:50:25.007Z,100.00
2023-02-11T15:52:52.810Z,100.00
2023-02-11T15:55:19.921Z,100.00
2023-02-11T15:57:52.125Z,100.00
2023-02-11T16:00:21.496Z,100.00
2023-02-11T16:02:50.853Z,100.00
2023-02-11T16:05:28.565Z,100.00
2023-02-11T16:07:56.869Z,100.00
2023-02-11T16:10:29.462Z,100.00
2023-02-11T16:13:08.477Z,100.00
2023-02-11T16:15:34.954Z,100.00
2023-02-11T16:18:04.348Z,100.00
2023-02-11T16:20:30.927Z,100.00
2023-02-11T16:22:57.682Z,100.00
2023-02-11T16:25:24.634Z,100.00
2023-02-11T16:27:53.466Z,100.00
2023-02-11T16:30:23.356Z,100.00
2023-02-11T16:32:49.838Z,100.00
2023-02-11T16:35:16.339Z,100.00
2023-02-11T16:37:42.887Z,100.00
2023-02-11T16:40:11.770Z,100.00
2023-02-11T16:42:38.469Z,100.00
2023-02-11T16:45:05.320Z,100.00
2023-02-11T16:47:33.710Z,100.00
2023-02-11T16:50:01.816Z,100.00
2023-02-11T16:52:32.147Z,100.00
2023-02-11T16:54:59.622Z,100.00
2023-02-11T16:57:29.532Z,100.00
2023-02-11T16:59:57.298Z,100.00
2023-02-11T17:02:28.879Z,100.00
2023-02-11T17:04:58.360Z,100.00
2023-02-11T17:07:25.056Z,100.00
2023-02-11T17:09:54.562Z,100.00
2023-02-11T17:12:21.463Z,100.00
2023-02-11T17:14:48.055Z,100.00
2023-02-11T17:17:14.619Z,100.00
2023-02-11T17:19:41.366Z,100.00
2023-02-11T17:22:08.203Z,100.00
2023-02-11T17:24:34.696Z,100.00
2023-02-11T17:27:01.214Z,100.00
2023-02-11T17:29:27.888Z,100.00
2023-02-11T17:31:54.590Z,100.00
2023-02-11T17:34:22.080Z,100.00
2023-02-11T17:36:49.480Z,100.00
2023-02-11T17:39:16.292Z,100.00
2023-02-11T17:41:42.726Z,100.00
2023-02-11T17:44:10.869Z,100.00
2023-02-11T17:46:37.385Z,100.00
2023-02-11T17:49:04.569Z,100.00
2023-02-11T17:51:36.509Z,100.00
2023-02-11T17:54:06.237Z,100.00
2023-02-11T17:56:34.496Z,100.00
2023-02-11T17:59:02.442Z,100.00
2023-02-11T18:01:29.617Z,100.00
2023-02-11T18:03:56.125Z,100.00
2023-02-11T18:06:23.132Z,100.00
2023-02-11T18:08:49.752Z,100.00
2023-02-11T18:11:17.012Z,100.00
2023-02-11T18:13:45.207Z,100.00
2023-02-11T18:16:15.753Z,100.00
2023-02-11T18:18:43.372Z,100.00
2023-02-11T18:21:15.369Z,100.00
2023-02-11T18:23:42.161Z,100.00
2023-02-11T18:26:10.926Z,100.00
2023-02-11T18:28:37.920Z,100.00
2023-02-11T18:31:05.572Z,100.00
2023-02-11T18:33:32.372Z,100.00
2023-02-11T18:35:58.995Z,100.00
2023-02-11T18:38:25.801Z,100.00
2023-02-11T18:40:52.869Z,100.00
2023-02-11T18:43:20.273Z,100.00
2023-02-11T18:45:48.588Z,100.00
2023-02-11T18:48:16.236Z,100.00
2023-02-11T18:50:44.535Z,100.00
2023-02-11T18:53:15.489Z,100.00
2023-02-11T18:55:44.137Z,100.00
2023-02-11T18:58:10.860Z,100.00
2023-02-11T19:00:40.018Z,100.00
2023-02-11T19:03:06.970Z,100.00
2023-02-11T19:05:41.179Z,100.00
2023-02-11T19:08:07.784Z,100.00
2023-02-11T19:10:35.028Z,100.00
2023-02-11T19:13:01.563Z,100.00
2023-02-11T19:15:28.714Z,100.00
2023-02-11T19:17:55.166Z,100.00
2023-02-11T19:20:21.683Z,100.00
2023-02-11T19:22:48.247Z,100.00
2023-02-11T19:25:14.982Z,100.00
2023-02-11T19:27:42.056Z,100.00
2023-02-11T19:30:10.399Z,100.00
2023-02-11T19:32:37.265Z,100.00
2023-02-11T19:35:04.260Z,100.00
2023-02-11T19:37:30.772Z,100.00
2023-02-11T19:39:57.628Z,100.00
2023-02-11T19:42:27.612Z,100.00
2023-02-11T19:44:54.373Z,100.00
2023-02-11T19:47:29.974Z,100.00
2023-02-11T19:50:04.219Z,100.00
2023-02-11T19:52:38.256Z,100.00
2023-02-11T19:55:05.442Z,100.00
2023-02-11T19:57:32.460Z,100.00
2023-02-11T19:59:59.213Z,100.00
2023-02-11T20:02:26.178Z,100.00
2023-02-11T20:04:52.843Z,100.00
2023-02-11T20:07:19.383Z,100.00
2023-02-11T20:09:45.863Z,100.00
2023-02-11T20:12:12.678Z,100.00
2023-02-11T20:14:39.249Z,100.00
2023-02-11T20:17:06.151Z,100.00
2023-02-11T20:19:32.613Z,100.00
2023-02-11T20:21:59.508Z,100.00
2023-02-11T20:24:26.099Z,100.00
2023-02-11T20:26:55.776Z,100.00
2023-02-11T20:29:23.611Z,100.00
2023-02-11T20:31:50.885Z,100.00
2023-02-11T20:34:18.353Z,100.00
2023-02-11T20:36:51.620Z,100.00
2023-02-11T20:39:21.590Z,100.00
2023-02-11T20:41:48.735Z,100.00
2023-02-11T20:44:15.329Z,100.00
2023-02-11T20:46:48.085Z,100.00
2023-02-11T20:49:17.034Z,100.00
2023-02-11T20:51:43.572Z,100.00
2023-02-11T20:54:18.949Z,100.00
2023-02-11T20:56:48.126Z,100.00
2023-02-11T20:59:16.427Z,100.00
2023-02-11T21:01:45.580Z,100.00
2023-02-11T21:04:15.247Z,100.00
2023-02-11T21:06:47.965Z,100.00
2023-02-11T21:09:17.367Z,100.00
2023-02-11T21:11:44.380Z,100.00
2023-02-11T21:14:11.987Z,100.00
2023-02-11T21:16:39.566Z,100.00
2023-02-11T21:19:06.889Z,100.00
2023-02-11T21:21:36.893Z,100.00
2023-02-11T21:24:04.155Z,100.00
2023-02-11T21:26:33.005Z,100.00
2023-02-11T21:28:59.458Z,100.00
2023-02-11T21:31:32.205Z,100.00
2023-02-11T21:34:02.330Z,100.00
2023-02-11T21:36:30.343Z,100.00
2023-02-11T21:38:57.360Z,100.00
2023-02-11T21:41:24.793Z,100.00
2023-02-11T21:43:51.844Z,100.00
2023-02-11T21:46:19.869Z,100.00
2023-02-11T21:48:46.989Z,100.00
2023-02-11T21:51:17.085Z,100.00
2023-02-11T21:53:43.854Z,100.00
2023-02-11T21:56:13.429Z,100.00
2023-02-11T21:58:40.179Z,100.00
2023-02-11T22:01:19.623Z,100.00
2023-02-11T22:03:46.518Z,100.00
2023-02-11T22:06:16.715Z,100.00
2023-02-11T22:08:44.142Z,100.00
2023-02-11T22:11:13.344Z,100.00
2023-02-11T22:13:40.320Z,100.00
2023-02-11T22:16:11.168Z,100.00
2023-02-11T22:18:38.995Z,100.00
2023-02-11T22:21:08.557Z,100.00
2023-02-11T22:23:35.792Z,100.00
2023-02-11T22:26:11.804Z,100.00
2023-02-11T22:28:40.485Z,100.00
2023-02-11T22:31:12.292Z,100.00
2023-02-11T22:33:39.206Z,100.00
2023-02-11T22:36:09.397Z,100.00
2023-02-11T22:38:35.961Z,100.00
2023-02-11T22:41:07.766Z,100.00
2023-02-11T22:43:34.560Z,100.00
2023-02-11T22:46:06.610Z,100.00
2023-02-11T22:48:35.081Z,100.00
2023-02-11T22:51:10.988Z,100.00
2023-02-11T22:53:37.873Z,100.00
2023-02-11T22:56:15.015Z,100.00
2023-02-11T22:58:42.297Z,100.00
2023-02-11T23:01:08.744Z,100.00
2023-02-11T23:03:35.665Z,100.00
2023-02-11T23:06:02.971Z,100.00
2023-02-11T23:08:31.347Z,100.00
2023-02-11T23:11:10.502Z,100.00
2023-02-11T23:13:39.370Z,100.00
2023-02-11T23:16:09.057Z,100.00
2023-02-11T23:18:38.196Z,100.00
2023-02-11T23:21:12.463Z,100.00
2023-02-11T23:23:39.554Z,100.00
2023-02-11T23:26:09.883Z,100.00
2023-02-11T23:28:36.577Z,100.00
2023-02-11T23:31:14.011Z,100.00
2023-02-11T23:33:40.538Z,100.00
2023-02-11T23:36:07.727Z,100.00
2023-02-11T23:38:34.440Z,100.00
2023-02-11T23:41:00.932Z,100.00
2023-02-11T23:43:27.612Z,100.00
2023-02-11T23:45:54.503Z,100.00
2023-02-11T23:48:21.145Z,100.00
2023-02-11T23:50:48.283Z,100.00
2023-02-11T23:53:14.785Z,100.00
2023-02-11T23:55:43.138Z,100.00
2023-02-11T23:58:10.528Z,100.00
